Time;durP1;ratioP1;P1;durP2;ratioP2;P2;SDS_P1;SDS_P2;PMS_P1;PMS_P2;Temp;Humidity;BMP_temperature;BMP_pressure;BME280_temperature;BME280_humidity;BME280_pressure;Samples;Min_cycle;Max_cycle;Signal;HPM_P1;HPM_P2
2022/04/20 00:00:03;;;;;;;8.55;4.80;;;;;;;6.35;51.92;93406.69;5024191;28;20049;-46
2022/04/20 00:02:30;;;;;;;7.75;4.85;;;;;;;6.28;51.90;93401.28;5007738;28;20052;-50
2022/04/20 00:04:57;;;;;;;9.23;5.10;;;;;;;6.23;52.17;93401.72;5025801;28;20753;-53
2022/04/20 00:07:23;;;;;;;11.55;4.80;;;;;;;6.14;53.04;93407.63;5023412;28;20050;-50
2022/04/20 00:09:50;;;;;;;8.25;5.00;;;;;;;6.17;52.85;93409.53;5024370;28;20407;-49
2022/04/20 00:12:17;;;;;;;7.95;4.43;;;;;;;6.25;52.42;93410.25;5025800;28;20065;-53
2022/04/20 00:14:44;;;;;;;8.88;4.72;;;;;;;6.22;52.50;93408.31;5024959;28;20049;-47
2022/04/20 00:17:11;;;;;;;9.90;5.50;;;;;;;6.08;52.84;93409.22;5026113;28;20051;-51
2022/04/20 00:19:38;;;;;;;12.95;7.10;;;;;;;6.04;53.92;93401.06;5024977;28;20059;-50
2022/04/20 00:22:05;;;;;;;10.43;5.40;;;;;;;6.04;53.30;93413.88;5023436;28;20049;-49
2022/04/20 00:24:32;;;;;;;8.07;5.10;;;;;;;5.96;54.25;93416.66;5025047;28;20047;-51
2022/04/20 00:26:58;;;;;;;9.73;4.85;;;;;;;5.97;53.56;93403.81;5024988;28;20058;-51
2022/04/20 00:29:25;;;;;;;8.57;5.30;;;;;;;5.86;54.37;93411.25;5024587;28;20052;-54
2022/04/20 00:31:52;;;;;;;9.50;5.30;;;;;;;5.90;54.24;93399.16;5025672;28;20524;-48
2022/04/20 00:34:19;;;;;;;10.07;5.30;;;;;;;5.87;54.64;93402.69;5024067;28;20053;-50
2022/04/20 00:36:50;;;;;;;11.43;5.78;;;;;;;5.85;54.18;93405.03;5023849;28;21789;-49
2022/04/20 00:39:17;;;;;;;7.65;4.93;;;;;;;5.90;54.32;93406.56;5025649;28;20061;-53
2022/04/20 00:41:44;;;;;;;10.50;6.00;;;;;;;5.81;54.45;93404.28;5025222;28;20052;-47
2022/04/20 00:44:11;;;;;;;9.10;5.53;;;;;;;5.75;54.68;93406.63;5023725;28;20079;-49
2022/04/20 00:46:40;;;;;;;9.43;5.70;;;;;;;5.70;55.16;93403.56;5024909;28;20130;-51
2022/04/20 00:49:09;;;;;;;8.82;5.50;;;;;;;5.68;55.20;93403.97;5025458;28;20864;-52
2022/04/20 00:51:57;;;;;;;21.10;11.10;;;;;;;5.71;55.61;93405.88;5024819;28;20045;-49
2022/04/20 00:54:25;;;;;;;13.83;8.10;;;;;;;5.63;55.77;93406.31;5024926;28;20053;-51
2022/04/20 00:56:52;;;;;;;11.55;6.57;;;;;;;5.60;56.07;93407.88;5024471;28;20049;-51
2022/04/20 00:59:22;;;;;;;10.75;5.70;;;;;;;5.51;56.06;93397.41;5024472;28;20126;-52
2022/04/20 01:01:51;;;;;;;9.70;6.13;;;;;;;5.38;56.50;93399.03;5024350;28;20611;-51
2022/04/20 01:04:18;;;;;;;9.95;5.95;;;;;;;5.47;55.80;93395.88;5025312;28;20057;-49
2022/04/20 01:06:45;;;;;;;9.57;5.43;;;;;;;5.48;55.90;93392.78;5027626;28;20075;-53
2022/04/20 01:09:13;;;;;;;8.98;5.60;;;;;;;5.40;56.77;93397.47;5029000;28;20154;-52
2022/04/20 01:11:40;;;;;;;11.02;6.07;;;;;;;5.27;57.70;93392.84;5028851;28;20037;-53
2022/04/20 01:14:07;;;;;;;9.38;6.00;;;;;;;5.29;57.44;93393.22;5028694;28;20055;-49
2022/04/20 01:16:33;;;;;;;8.70;5.80;;;;;;;5.32;56.73;93401.38;5028387;28;20049;-52
2022/04/20 01:19:01;;;;;;;9.73;6.50;;;;;;;5.31;57.12;93394.41;5028172;28;20061;-50
2022/04/20 01:21:29;;;;;;;10.15;6.20;;;;;;;5.25;57.22;93396.00;5027231;28;20451;-47
2022/04/20 01:23:56;;;;;;;9.98;6.20;;;;;;;5.27;57.94;93398.28;5026981;28;20063;-51
2022/04/20 01:26:23;;;;;;;33.08;17.75;;;;;;;5.30;58.14;93390.13;5027930;28;20091;-52
2022/04/20 01:28:50;;;;;;;11.93;7.32;;;;;;;5.16;58.13;93390.94;5027981;28;20072;-55
2022/04/20 01:31:17;;;;;;;9.93;6.37;;;;;;;5.18;57.66;93396.00;5027123;28;20068;-53
2022/04/20 01:33:45;;;;;;;9.45;6.30;;;;;;;5.15;57.86;93394.06;5026730;28;20055;-54
2022/04/20 01:36:12;;;;;;;10.02;6.10;;;;;;;5.09;58.41;93390.97;5026409;28;20053;-53
2022/04/20 01:38:39;;;;;;;10.25;6.72;;;;;;;5.08;58.15;93391.38;5026661;28;20417;-49
2022/04/20 01:41:06;;;;;;;10.90;6.40;;;;;;;5.09;58.13;93382.81;5026713;28;20057;-50
2022/04/20 01:43:32;;;;;;;9.90;6.40;;;;;;;5.08;58.10;93389.41;5027672;28;20107;-49
2022/04/20 01:45:59;;;;;;;11.73;6.80;;;;;;;5.02;58.23;93388.28;5026802;28;20053;-48
2022/04/20 01:48:26;;;;;;;10.85;7.03;;;;;;;4.99;59.05;93389.06;5027835;28;20063;-54
2022/04/20 01:53:38;;;;;;;12.70;7.00;;;;;;;4.86;59.67;93387.94;5011372;28;20045;-47
2022/04/20 01:56:06;;;;;;;10.13;6.60;;;;;;;4.91;59.67;93390.22;5027977;28;20049;-49
2022/04/20 01:58:36;;;;;;;11.13;7.03;;;;;;;4.91;59.67;93384.78;5027365;28;20060;-49
2022/04/20 02:02:34;;;;;;;10.98;6.85;;;;;;;4.90;59.42;93391.41;5027845;28;20053;-47
2022/04/20 02:03:50;;;;;;;11.10;6.93;;;;;;;4.69;60.03;93379.41;5025837;28;20049;-51
2022/04/20 02:06:17;;;;;;;11.00;7.60;;;;;;;4.60;60.21;93379.81;5027168;28;20049;-47
2022/04/20 02:08:44;;;;;;;11.93;7.60;;;;;;;4.42;60.40;93384.50;5027638;28;20041;-51
2022/04/20 02:11:11;;;;;;;11.88;6.85;;;;;;;4.42;60.58;93381.78;5027823;28;20053;-52
2022/04/20 02:13:38;;;;;;;12.23;7.22;;;;;;;4.52;60.53;93377.50;5025479;28;20045;-54
2022/04/20 02:16:05;;;;;;;12.30;7.45;;;;;;;4.41;59.78;93382.94;5027601;28;20054;-49
2022/04/20 02:18:32;;;;;;;10.32;7.10;;;;;;;4.45;59.33;93377.50;5027226;28;20387;-51
2022/04/20 02:20:59;;;;;;;11.93;6.97;;;;;;;4.46;59.05;93376.34;5025571;28;20053;-52
2022/04/20 02:23:26;;;;;;;12.00;6.80;;;;;;;4.48;59.28;93382.94;5027067;28;20522;-50
2022/04/20 02:25:54;;;;;;;10.73;6.93;;;;;;;4.45;59.02;93389.16;5027425;28;20041;-55
2022/04/20 02:28:21;;;;;;;10.20;7.05;;;;;;;4.25;59.06;93379.84;5058448;28;20041;-45
2022/04/20 02:30:48;;;;;;;11.45;6.45;;;;;;;4.24;58.87;93379.06;5027360;28;20065;-53
2022/04/20 02:33:15;;;;;;;11.47;6.70;;;;;;;4.19;58.87;93377.50;5027461;28;20504;-46
2022/04/20 02:35:42;;;;;;;10.65;6.60;;;;;;;4.19;59.62;93374.78;5026192;28;20421;-51
2022/04/20 02:38:10;;;;;;;9.65;6.50;;;;;;;4.14;57.74;93371.69;5027432;28;20066;-55
2022/04/20 02:40:38;;;;;;;11.75;6.93;;;;;;;4.22;58.76;93375.97;5026631;28;20049;-51
2022/04/20 02:43:05;;;;;;;11.43;6.78;;;;;;;4.17;57.62;93373.63;5026723;28;20057;-51
2022/04/20 02:45:32;;;;;;;10.77;6.03;;;;;;;4.24;56.91;93375.56;5026567;28;20071;-51
2022/04/20 02:48:00;;;;;;;9.63;6.40;;;;;;;4.24;56.90;93379.06;5027275;28;20881;-55
2022/04/20 02:50:28;;;;;;;11.18;6.60;;;;;;;4.28;57.45;93381.78;5026047;28;20053;-52
2022/04/20 02:52:56;;;;;;;10.30;6.28;;;;;;;4.22;58.25;93375.19;5027082;28;20053;-50
2022/04/20 02:55:23;;;;;;;10.43;6.22;;;;;;;4.00;58.59;93361.59;5026324;28;20064;-53
2022/04/20 02:57:50;;;;;;;10.33;6.53;;;;;;;3.98;58.69;93361.19;5026524;28;20049;-48
2022/04/20 03:00:17;;;;;;;9.68;6.13;;;;;;;4.02;57.80;93361.22;5027033;28;20053;-50
2022/04/20 03:02:44;;;;;;;11.25;6.40;;;;;;;4.05;56.42;93361.22;5026376;28;20053;-53
2022/04/20 03:05:11;;;;;;;10.00;5.70;;;;;;;4.06;56.32;93362.75;5026239;28;20061;-49
2022/04/20 03:07:38;;;;;;;9.43;5.82;;;;;;;4.14;55.91;93364.31;5025904;28;20120;-54
2022/04/20 03:10:05;;;;;;;9.53;5.77;;;;;;;4.15;55.15;93365.09;5027004;28;20059;-48
2022/04/20 03:12:32;;;;;;;8.82;5.63;;;;;;;4.26;54.85;93365.09;5025661;28;20064;-50
2022/04/20 03:14:58;;;;;;;9.65;6.57;;;;;;;4.26;54.66;93360.44;5026505;28;20053;-54
2022/04/20 03:17:25;;;;;;;9.93;5.85;;;;;;;4.20;53.92;93359.28;5026090;28;20057;-53
2022/04/20 03:19:52;;;;;;;10.45;5.80;;;;;;;4.12;53.99;93363.16;5025800;28;20536;-50
2022/04/20 03:22:19;;;;;;;9.20;5.90;;;;;;;4.10;53.90;93363.53;5025074;28;20061;-54
2022/04/20 03:24:46;;;;;;;8.85;5.75;;;;;;;4.14;53.92;93360.81;5025282;28;21661;-52
2022/04/20 03:27:13;;;;;;;8.60;5.35;;;;;;;4.14;53.44;93358.09;5024846;28;20049;-47
2022/04/20 03:29:41;;;;;;;9.43;5.68;;;;;;;4.06;53.12;93362.75;5025203;28;20106;-51
2022/04/20 03:32:10;;;;;;;8.45;5.40;;;;;;;4.10;53.48;93352.66;5024986;28;20062;-55
2022/04/20 03:34:37;;;;;;;8.83;5.10;;;;;;;4.10;52.83;93352.66;5025339;28;20099;-49
2022/04/20 03:37:06;;;;;;;7.85;5.22;;;;;;;4.14;52.54;93363.53;5026101;28;20045;-50
2022/04/20 03:39:33;;;;;;;6.95;4.50;;;;;;;4.14;51.83;93361.59;5025706;28;20130;-50
2022/04/20 03:42:00;;;;;;;8.82;4.65;;;;;;;4.13;51.66;93360.06;5025438;28;20536;-53
2022/04/20 03:44:27;;;;;;;7.93;4.88;;;;;;;4.14;51.80;93366.25;5024427;28;20054;-47
2022/04/20 03:46:53;;;;;;;8.33;5.20;;;;;;;4.15;51.10;93354.25;5024724;28;20072;-54
2022/04/20 03:49:20;;;;;;;8.32;4.60;;;;;;;4.07;51.63;93356.19;5025598;28;20092;-50
2022/04/20 03:51:47;;;;;;;7.07;4.22;;;;;;;3.99;51.19;93360.81;5024957;28;20101;-49
2022/04/20 03:54:15;;;;;;;6.85;4.78;;;;;;;3.87;51.73;93353.06;5026191;28;20073;-53
2022/04/20 03:59:27;;;;;;;8.20;5.50;;;;;;;3.99;51.07;93349.97;5025552;28;20079;-53
2022/04/20 04:01:54;;;;;;;7.32;4.28;;;;;;;4.02;50.52;93364.69;5024225;28;20056;-57
2022/04/20 04:04:21;;;;;;;6.97;4.18;;;;;;;4.02;50.03;93353.84;5025403;28;20045;-48
2022/04/20 04:06:47;;;;;;;8.45;4.43;;;;;;;4.06;49.40;93362.00;5024638;28;20859;-50
2022/04/20 04:09:15;;;;;;;7.78;4.40;;;;;;;3.93;50.34;93362.38;5025997;28;20100;-52
2022/04/20 04:11:41;;;;;;;8.10;4.47;;;;;;;3.93;49.80;93365.09;5024684;28;20047;-52
2022/04/20 04:14:08;;;;;;;8.05;4.35;;;;;;;3.89;50.06;93363.53;5025834;28;20075;-51
2022/04/20 04:16:39;;;;;;;9.00;4.70;;;;;;;3.85;50.27;93365.47;5023592;28;20130;-55
2022/04/20 04:19:08;;;;;;;7.47;4.25;;;;;;;3.91;49.17;93369.34;5024913;28;20067;-53
2022/04/20 04:21:41;;;;;;;7.03;4.22;;;;;;;4.01;48.71;93365.88;5025029;28;20869;-54
2022/04/20 04:24:09;;;;;;;7.37;4.00;;;;;;;4.05;48.96;93361.22;5025420;28;20056;-52
2022/04/20 04:26:36;;;;;;;7.57;4.50;;;;;;;4.19;48.55;93360.44;5024479;28;20061;-53
2022/04/20 04:29:03;;;;;;;7.57;4.18;;;;;;;4.17;48.05;93358.13;5025317;28;20111;-49
2022/04/20 04:31:29;;;;;;;8.13;4.15;;;;;;;4.04;49.29;93356.94;5025323;28;20053;-52
2022/04/20 04:33:57;;;;;;;6.78;4.30;;;;;;;4.19;48.98;93357.72;5025064;28;20486;-50
2022/04/20 04:36:24;;;;;;;5.87;3.67;;;;;;;4.23;47.51;93361.22;5025091;28;20061;-52
2022/04/20 04:38:50;;;;;;;6.78;3.63;;;;;;;4.30;47.74;93353.06;5025904;28;20034;-51
2022/04/20 04:41:17;;;;;;;7.20;3.83;;;;;;;4.39;47.25;93361.59;5028044;28;20041;-51
2022/04/20 04:43:44;;;;;;;6.70;4.00;;;;;;;4.42;47.02;93360.03;5027382;28;20060;-49
2022/04/20 04:48:56;;;;;;;5.43;3.40;;;;;;;4.38;45.57;93351.13;5026960;28;20231;-55
2022/04/20 04:51:22;;;;;;;8.38;3.88;;;;;;;4.48;44.96;93361.19;5028789;28;20056;-51
2022/04/20 04:53:49;;;;;;;8.40;4.00;;;;;;;4.58;45.07;93359.63;5027465;28;20059;-51
2022/04/20 04:56:16;;;;;;;6.25;3.60;;;;;;;4.73;45.21;93361.16;5028575;28;20049;-53
2022/04/20 04:58:43;;;;;;;6.47;3.90;;;;;;;4.80;44.44;93360.38;5028667;28;20042;-53
2022/04/20 05:01:10;;;;;;;5.87;3.33;;;;;;;4.80;44.23;93363.84;5024647;28;20053;-56
2022/04/20 05:03:37;;;;;;;8.95;3.60;;;;;;;4.88;44.52;93359.19;5006869;28;20123;-51
2022/04/20 05:06:03;;;;;;;7.10;3.65;;;;;;;4.96;44.72;93362.66;5009216;28;20068;-49
2022/04/20 05:08:30;;;;;;;5.13;3.42;;;;;;;4.92;43.84;93361.88;5023887;28;20089;-50
2022/04/20 05:10:57;;;;;;;5.45;3.50;;;;;;;5.10;43.09;93356.41;5027338;28;20037;-53
2022/04/20 05:13:23;;;;;;;6.03;3.50;;;;;;;5.22;42.36;93363.34;5027810;28;20049;-52
2022/04/20 05:15:50;;;;;;;6.38;3.38;;;;;;;5.36;42.11;93360.56;5028440;28;20056;-52
2022/04/20 05:18:17;;;;;;;5.78;3.17;;;;;;;5.54;42.30;93355.81;5028547;28;20099;-49
2022/04/20 05:20:44;;;;;;;6.43;3.42;;;;;;;5.47;42.13;93361.28;5026768;28;20052;-49
2022/04/20 05:23:11;;;;;;;5.53;3.47;;;;;;;5.50;42.84;93363.22;5028347;28;20060;-50
2022/04/20 05:25:37;;;;;;;6.60;3.47;;;;;;;5.40;41.83;93364.03;5027554;28;20141;-53
2022/04/20 05:28:06;;;;;;;7.00;3.28;;;;;;;5.69;41.86;93369.34;5028566;28;20734;-49
2022/04/20 05:30:33;;;;;;;6.22;3.58;;;;;;;5.79;42.23;93368.50;5026910;28;20821;-52
2022/04/20 05:33:00;;;;;;;5.47;3.40;;;;;;;5.55;44.23;93370.97;5027957;28;20071;-49
2022/04/20 05:35:26;;;;;;;6.15;3.72;;;;;;;5.27;45.19;93369.16;5027912;28;20053;-48
2022/04/20 05:43:24;;;;;;;5.40;3.20;;;;;;;6.17;40.54;93361.25;5026164;28;20055;-50
2022/04/20 05:45:52;;;;;;;5.95;3.20;;;;;;;6.42;40.36;93359.50;5027864;28;20037;-52
2022/04/20 05:48:24;;;;;;;5.22;3.08;;;;;;;6.52;40.15;93353.97;5027170;28;20138;-51
2022/04/20 05:50:51;;;;;;;6.17;3.43;;;;;;;6.41;39.95;93364.19;5028002;28;20045;-54
2022/04/20 05:53:18;;;;;;;6.65;3.90;;;;;;;6.63;39.64;93364.78;5027960;28;20088;-53
2022/04/20 05:55:45;;;;;;;5.82;3.45;;;;;;;6.66;39.11;93353.09;5026942;28;20053;-48
2022/04/20 05:58:11;;;;;;;5.63;3.30;;;;;;;6.32;39.55;93361.94;5028019;28;20049;-48
2022/04/20 06:00:38;;;;;;;4.60;3.13;;;;;;;6.65;39.09;93356.97;5027340;28;20088;-51
2022/04/20 06:03:05;;;;;;;5.43;2.97;;;;;;;6.46;39.25;93363.78;5027608;28;20075;-46
2022/04/20 06:05:32;;;;;;;5.03;3.10;;;;;;;6.75;39.46;93358.81;5027020;28;20049;-52
2022/04/20 06:07:58;;;;;;;5.95;3.10;;;;;;;6.78;39.56;93354.50;5027086;28;20057;-49
2022/04/20 06:10:25;;;;;;;5.57;3.20;;;;;;;7.00;38.39;93358.56;5026815;28;20057;-51
2022/04/20 06:12:52;;;;;;;5.40;3.30;;;;;;;7.01;38.91;93353.88;5027619;28;20544;-52
2022/04/20 06:15:19;;;;;;;5.93;3.67;;;;;;;7.23;37.77;93357.16;5026784;28;20061;-50
2022/04/20 06:17:46;;;;;;;5.78;3.25;;;;;;;7.28;37.96;93348.50;5026623;28;20223;-51
2022/04/20 06:20:13;;;;;;;5.60;3.55;;;;;;;7.35;37.31;93358.56;5027689;28;20049;-51
2022/04/20 06:22:39;;;;;;;5.22;3.15;;;;;;;7.94;35.96;93360.16;5027329;28;20061;-46
2022/04/20 06:25:06;;;;;;;4.65;2.95;;;;;;;9.25;34.67;93361.13;5028977;28;20037;-47
2022/04/20 06:27:33;;;;;;;5.37;3.20;;;;;;;11.94;30.44;93351.94;5031288;28;20064;-51
2022/04/20 06:30:00;;;;;;;7.70;3.33;;;;;;;14.06;26.57;93342.09;5031051;28;20049;-53
2022/04/20 06:32:28;;;;;;;5.00;2.97;;;;;;;15.14;25.50;93346.94;5030397;28;20118;-53
2022/04/20 06:34:55;;;;;;;4.80;3.10;;;;;;;13.41;26.89;93342.94;5030977;28;20046;-51
2022/04/20 06:37:24;;;;;;;5.20;3.13;;;;;;;14.32;26.01;93341.91;5030735;28;20059;-48
2022/04/20 06:39:51;;;;;;;4.83;2.90;;;;;;;15.89;24.43;93333.88;5031309;28;20398;-50
2022/04/20 06:42:18;;;;;;;6.53;3.10;;;;;;;15.80;23.56;93331.13;5030819;28;20060;-50
2022/04/20 06:44:45;;;;;;;4.82;3.30;;;;;;;14.39;25.31;93333.38;5029716;28;20041;-48
2022/04/20 06:47:11;;;;;;;5.40;3.13;;;;;;;15.75;23.56;93330.53;5030659;28;20525;-48
2022/04/20 06:49:38;;;;;;;7.90;3.40;;;;;;;16.32;23.86;93332.69;5030452;28;20084;-52
2022/04/20 07:00:21;;;;;;;4.85;3.20;;;;;;;17.93;21.41;93334.31;5028922;28;20405;-47
2022/04/20 07:02:58;;;;;;;4.05;3.13;;;;;;;16.61;22.91;93336.88;5030059;28;20126;-50
2022/04/20 07:05:26;;;;;;;6.03;3.00;;;;;;;16.32;23.51;93327.16;5029844;28;20033;-49
2022/04/20 07:08:00;;;;;;;5.28;3.22;;;;;;;13.83;26.43;93331.56;5029466;28;20404;-47
2022/04/20 07:10:28;;;;;;;8.93;3.30;;;;;;;18.31;21.38;93325.13;5030388;28;20057;-49
2022/04/20 07:12:54;;;;;;;4.90;3.20;;;;;;;17.49;22.41;93316.31;5029586;28;20422;-51
2022/04/20 07:15:21;;;;;;;5.15;3.50;;;;;;;15.78;24.22;93321.28;5028805;28;20048;-47
2022/04/20 07:17:48;;;;;;;5.53;3.50;;;;;;;16.28;24.14;93321.00;5030531;28;20037;-49
2022/04/20 07:20:17;;;;;;;5.43;3.80;;;;;;;13.89;27.78;93327.78;5030353;28;20079;-51
2022/04/20 07:22:48;;;;;;;5.93;3.40;;;;;;;14.83;26.19;93327.72;5030087;28;20049;-51
2022/04/20 07:25:16;;;;;;;5.18;3.40;;;;;;;13.25;28.41;93328.06;5030016;28;20057;-50
2022/04/20 07:27:48;;;;;;;5.50;3.40;;;;;;;13.85;27.49;93326.38;5028713;28;20045;-48
2022/04/20 07:30:16;;;;;;;5.53;3.70;;;;;;;11.80;30.67;93322.06;5010678;28;20091;-48
2022/04/20 07:32:43;;;;;;;5.60;3.70;;;;;;;13.54;28.90;93318.81;5010299;28;20046;-50
2022/04/20 07:35:10;;;;;;;6.32;3.72;;;;;;;13.49;28.33;93322.94;5010411;28;20045;-47
2022/04/20 07:37:37;;;;;;;8.45;3.70;;;;;;;12.68;29.78;93327.28;5010159;28;20052;-46
2022/04/20 07:40:05;;;;;;;4.55;3.50;;;;;;;14.80;27.43;93323.09;5010410;28;20052;-51
2022/04/20 07:42:32;;;;;;;5.20;3.77;;;;;;;14.55;26.59;93329.59;5009504;28;20083;-47
2022/04/20 07:44:59;;;;;;;6.38;4.10;;;;;;;13.40;28.34;93320.13;5010619;28;20054;-47
2022/04/20 07:47:28;;;;;;;5.80;3.70;;;;;;;13.48;28.68;93321.41;5009712;28;20091;-55
2022/04/20 07:52:42;;;;;;;5.65;3.05;;;;;;;20.81;20.31;93312.84;5009920;28;20046;-51
2022/04/20 07:55:10;;;;;;;5.53;3.20;;;;;;;20.58;20.25;93315.44;5010371;28;20052;-52
2022/04/20 07:57:37;;;;;;;5.05;3.50;;;;;;;16.74;24.49;93318.03;5009946;28;20054;-53
2022/04/20 08:00:06;;;;;;;7.63;3.80;;;;;;;17.02;23.05;93328.97;5010229;28;20052;-49
2022/04/20 08:02:33;;;;;;;6.03;3.20;;;;;;;20.85;20.00;93311.34;5009493;28;20041;-48
2022/04/20 08:05:00;;;;;;;5.93;3.70;;;;;;;19.13;21.34;93324.53;5010085;28;20054;-50
2022/04/20 08:07:27;;;;;;;7.53;3.90;;;;;;;17.21;23.29;93320.56;5015919;28;20051;-50
2022/04/20 08:09:54;;;;;;;7.28;3.80;;;;;;;18.00;22.07;93313.72;5029962;28;20037;-50
2022/04/20 08:12:21;;;;;;;6.95;3.70;;;;;;;12.13;29.29;93330.94;5029302;28;20052;-48
2022/04/20 08:14:48;;;;;;;7.07;3.83;;;;;;;12.87;28.43;93328.97;5029667;28;20063;-55
2022/04/20 08:17:14;;;;;;;12.18;3.88;;;;;;;14.78;25.99;93322.78;5029243;28;20055;-48
2022/04/20 08:19:41;;;;;;;5.97;3.90;;;;;;;12.73;28.64;93335.72;5029103;28;20421;-50
2022/04/20 08:22:08;;;;;;;6.30;4.05;;;;;;;14.69;27.00;93331.03;5028542;28;20060;-54
2022/04/20 08:24:35;;;;;;;5.60;4.10;;;;;;;12.74;30.48;93334.50;5028934;28;20047;-47
2022/04/20 08:27:03;;;;;;;4.85;3.90;;;;;;;14.04;28.34;93332.75;5028482;28;20056;-53
2022/04/20 08:29:29;;;;;;;5.72;4.10;;;;;;;14.44;28.09;93332.75;5028787;28;20494;-54
2022/04/20 08:31:56;;;;;;;5.33;4.00;;;;;;;13.72;28.54;93329.19;5027391;28;20060;-50
2022/04/20 08:34:23;;;;;;;6.40;3.67;;;;;;;16.96;25.16;93320.56;5029474;28;20087;-49
2022/04/20 08:36:50;;;;;;;4.75;3.60;;;;;;;16.25;25.42;93315.63;5029358;28;20049;-54
2022/04/20 08:39:17;;;;;;;6.05;3.90;;;;;;;15.53;26.54;93318.81;5029145;28;20068;-50
2022/04/20 08:41:48;;;;;;;4.82;3.72;;;;;;;16.63;24.29;93319.78;5028959;28;20048;-51
2022/04/20 08:44:29;;;;;;;5.17;4.30;;;;;;;15.32;26.01;93320.53;5029234;28;20114;-57
2022/04/20 08:47:00;;;;;;;6.40;3.50;;;;;;;21.06;20.08;93311.97;5028479;28;21668;-51
2022/04/20 08:49:27;;;;;;;4.50;3.30;;;;;;;21.95;18.91;93296.09;5028715;28;20049;-51
2022/04/20 08:54:40;;;;;;;4.78;3.28;;;;;;;21.06;19.46;93311.97;5029033;28;20054;-50
2022/04/20 08:57:16;;;;;;;5.00;3.43;;;;;;;17.55;22.52;93311.63;5029581;28;20106;-50
2022/04/20 08:59:44;;;;;;;5.53;3.67;;;;;;;20.04;20.46;93306.88;5029211;28;20045;-53
2022/04/20 09:02:14;;;;;;;5.78;3.50;;;;;;;23.58;17.46;93303.59;5028148;28;20107;-54
2022/04/20 09:04:42;;;;;;;5.97;3.45;;;;;;;18.56;22.18;93320.94;5028899;28;20487;-48
2022/04/20 09:07:11;;;;;;;4.80;3.55;;;;;;;17.51;24.17;93318.63;5028930;28;20060;-51
2022/04/20 09:09:38;;;;;;;4.67;3.50;;;;;;;20.34;21.20;93308.16;5028471;28;20056;-52
2022/04/20 09:12:16;;;;;;;5.47;3.30;;;;;;;23.95;17.53;93298.88;5029240;28;20049;-52
2022/04/20 09:14:48;;;;;;;4.57;3.10;;;;;;;23.41;17.44;93308.50;5029077;28;20049;-48
2022/04/20 09:17:18;;;;;;;6.20;4.68;;;;;;;23.71;17.44;93300.22;5029346;28;20064;-45
2022/04/20 09:19:47;;;;;;;6.00;3.60;;;;;;;21.64;20.11;93299.81;5027325;28;20122;-49
2022/04/20 09:22:29;;;;;;;9.47;3.70;;;;;;;22.92;18.33;93301.22;5029298;28;20041;-51
2022/04/20 09:25:07;;;;;;;8.68;5.28;;;;;;;23.89;16.91;93293.28;5028302;28;20045;-49
2022/04/20 09:27:36;;;;;;;5.72;3.40;;;;;;;21.78;18.59;93292.50;5031450;28;20038;-50
2022/04/20 09:30:08;;;;;;;4.43;3.40;;;;;;;18.86;21.21;93297.91;5032564;28;20055;-45
2022/04/20 09:32:38;;;;;;;5.20;3.53;;;;;;;21.48;19.09;93290.88;5032063;28;20091;-52
2022/04/20 09:35:15;;;;;;;5.53;3.70;;;;;;;20.44;19.87;93294.78;5032847;28;20053;-53
2022/04/20 09:37:43;;;;;;;4.13;3.30;;;;;;;22.72;18.14;93285.47;5031820;28;20440;-51
2022/04/20 09:40:12;;;;;;;5.03;3.42;;;;;;;20.51;19.25;93290.81;5032683;28;20045;-51
2022/04/20 09:43:03;;;;;;;4.68;3.10;;;;;;;22.73;18.25;93286.22;5031964;28;20049;-48
2022/04/20 09:45:30;;;;;;;7.40;3.50;;;;;;;19.96;21.54;93292.63;5031685;28;20069;-48
2022/04/20 09:50:43;;;;;;;5.57;3.90;;;;;;;17.50;23.93;93294.88;5031720;28;20041;-47
2022/04/20 09:53:13;;;;;;;4.97;3.58;;;;;;;20.22;21.01;93289.03;5032477;28;20045;-51
2022/04/20 09:55:41;;;;;;;4.30;3.15;;;;;;;20.79;20.22;93285.44;5031456;28;20042;-53
2022/04/20 09:58:13;;;;;;;10.93;3.50;;;;;;;20.63;20.90;93286.13;5031689;28;20037;-51
2022/04/20 10:00:41;;;;;;;4.87;3.70;;;;;;;15.46;26.13;93299.78;5031263;28;20124;-48
2022/04/20 10:03:08;;;;;;;6.30;3.30;;;;;;;18.34;23.55;93295.59;5030481;28;20057;-48
2022/04/20 10:05:37;;;;;;;6.07;3.50;;;;;;;18.92;22.14;93302.28;5031282;28;20053;-50
2022/04/20 10:08:05;;;;;;;5.45;4.07;;;;;;;15.50;26.50;93298.41;5031710;28;20053;-53
2022/04/20 10:10:35;;;;;;;6.32;3.70;;;;;;;21.75;19.47;93283.09;5031459;28;20068;-46
2022/04/20 10:13:04;;;;;;;5.60;3.33;;;;;;;21.78;19.37;93286.91;5031890;28;20053;-48
2022/04/20 10:18:25;;;;;;;4.60;3.10;;;;;;;22.99;17.79;93274.00;5031891;28;20053;-51
2022/04/20 10:21:00;;;;;;;5.97;3.88;;;;;;;20.80;19.78;93278.59;5030452;28;20384;-54
2022/04/20 10:23:29;;;;;;;5.75;3.30;;;;;;;18.77;21.58;93284.84;5030846;28;20517;-49
2022/04/20 10:25:58;;;;;;;5.17;3.60;;;;;;;19.12;21.41;93289.66;5031643;28;20498;-53
2022/04/20 10:28:50;;;;;;;5.10;3.30;;;;;;;22.46;18.67;93282.19;5030857;28;20053;-45
2022/04/20 10:31:33;;;;;;;5.90;3.22;;;;;;;18.25;21.33;93281.81;5031665;28;20045;-52
2022/04/20 10:34:01;;;;;;;5.00;3.20;;;;;;;19.51;20.93;93275.44;5030517;28;21589;-52
2022/04/20 10:36:31;;;;;;;4.25;2.90;;;;;;;20.41;20.25;93281.09;5030600;28;20606;-48
2022/04/20 10:39:22;;;;;;;4.40;2.80;;;;;;;19.47;20.81;93278.41;5030224;28;20114;-51
2022/04/20 10:42:11;;;;;;;4.80;3.50;;;;;;;17.83;22.53;93286.44;5030504;28;21798;-48
2022/04/20 10:45:04;;;;;;;4.25;2.90;;;;;;;23.01;17.53;93280.59;5030851;28;20072;-48
2022/04/20 10:47:36;;;;;;;5.47;2.85;;;;;;;19.86;20.25;93271.75;5029265;28;20048;-47
2022/04/20 10:50:20;;;;;;;3.80;2.80;;;;;;;21.93;18.41;93268.69;5031459;28;20060;-51
2022/04/20 10:52:48;;;;;;;4.17;2.97;;;;;;;19.69;20.52;93274.34;5030507;28;20395;-50
2022/04/20 10:55:15;;;;;;;6.95;2.90;;;;;;;19.22;21.58;93262.47;5031135;28;20049;-50
2022/04/20 10:57:43;;;;;;;5.35;2.90;;;;;;;22.18;18.84;93254.97;5030428;28;20517;-47
2022/04/20 11:00:19;;;;;;;5.72;2.80;;;;;;;21.21;19.47;93255.22;5029826;28;20461;-47
2022/04/20 11:02:53;;;;;;;6.15;3.58;;;;;;;17.90;22.22;93261.06;5030418;28;20051;-51
2022/04/20 11:05:22;;;;;;;5.27;3.70;;;;;;;16.59;24.45;93261.78;5031187;28;20056;-47
2022/04/20 11:08:05;;;;;;;4.93;3.50;;;;;;;18.94;22.03;93262.88;5029733;28;20809;-44
2022/04/20 11:10:34;;;;;;;4.80;3.20;;;;;;;19.24;21.82;93252.38;5030179;28;20059;-50
2022/04/20 11:19:02;;;;;;;5.30;3.93;;;;;;;14.22;29.01;93263.84;5029803;28;20604;-47
2022/04/20 11:21:30;;;;;;;7.13;3.70;;;;;;;14.95;27.58;93256.94;5029876;28;20037;-47
2022/04/20 11:23:58;;;;;;;5.80;3.90;;;;;;;14.79;28.13;93246.97;5030711;28;20037;-48
2022/04/20 11:26:39;;;;;;;7.10;3.90;;;;;;;15.17;26.99;93248.50;5029788;28;20054;-47
2022/04/20 11:29:16;;;;;;;6.13;3.63;;;;;;;14.82;27.06;93245.28;5029946;28;20049;-47
2022/04/20 11:31:51;;;;;;;6.17;3.70;;;;;;;15.13;27.66;93242.34;5029819;28;20059;-48
2022/04/20 11:34:22;;;;;;;5.35;3.88;;;;;;;15.13;27.11;93250.66;5030501;28;20050;-51
2022/04/20 11:36:51;;;;;;;5.50;3.33;;;;;;;15.51;27.03;93238.31;5029409;28;21680;-47
2022/04/20 11:39:20;;;;;;;4.93;3.42;;;;;;;15.59;27.06;93234.00;5030208;28;20049;-51
2022/04/20 11:41:52;;;;;;;6.63;3.50;;;;;;;15.54;26.42;93240.19;5029051;28;20480;-50
2022/04/20 11:44:24;;;;;;;5.53;3.63;;;;;;;13.58;30.78;93240.28;5030113;28;20041;-51
2022/04/20 11:46:53;;;;;;;5.15;3.70;;;;;;;14.27;28.47;93243.94;5028963;28;21347;-51
2022/04/20 11:49:21;;;;;;;5.28;3.55;;;;;;;14.59;27.64;93239.13;5029388;28;20059;-49
2022/04/20 11:52:03;;;;;;;5.30;3.30;;;;;;;15.81;27.21;93233.81;5028722;28;20956;-47
2022/04/20 11:54:30;;;;;;;5.03;3.50;;;;;;;15.17;27.07;93232.69;5029426;28;20050;-52
2022/04/20 11:56:57;;;;;;;5.77;3.50;;;;;;;14.80;27.64;93233.94;5030033;28;20068;-52
2022/04/20 11:59:27;;;;;;;7.20;3.72;;;;;;;13.99;28.58;93237.56;5029121;28;20053;-45
2022/04/20 12:01:55;;;;;;;6.70;3.75;;;;;;;15.06;27.13;93229.63;5029679;28;20051;-51
2022/04/20 12:04:25;;;;;;;4.30;3.10;;;;;;;14.85;27.90;93234.09;5029367;28;20472;-47
2022/04/20 12:06:57;;;;;;;7.07;3.92;;;;;;;14.17;29.14;93226.56;5029477;28;20033;-51
2022/04/20 12:09:29;;;;;;;6.20;4.40;;;;;;;13.84;29.42;93236.56;5029559;28;20061;-53
2022/04/20 12:12:22;;;;;;;6.57;4.35;;;;;;;12.89;31.10;93232.91;5028531;28;20103;-48
2022/04/20 12:14:49;;;;;;;5.75;4.10;;;;;;;14.19;29.19;93224.13;5027873;28;20047;-49
2022/04/20 12:17:20;;;;;;;7.28;4.10;;;;;;;14.92;27.81;93219.97;5029814;28;20053;-48
2022/04/20 12:19:49;;;;;;;7.03;4.10;;;;;;;14.28;28.59;93217.09;5028561;28;20831;-52
2022/04/20 12:22:21;;;;;;;6.97;3.90;;;;;;;13.88;29.51;93228.91;5029729;28;20053;-52